Startpagina
METAR-TAF:

METAR-TAF

Vliegvelden :

Fort Severn, Ontario, Canada

breedte: 56-01-08N, lengte: 87-40-34W, hoogte: 16 m

Actueel weer

Dit bericht is 21 minuten geleden gemaakt, om 10:45 UTC
Wind 8 kt uit het westen
Temperatuur -5°C
Vochtigheid 93%
Druk 1015 hPa
Zicht: 14.5 km
Gebroken wolken op 1500 ft
Geheel bewolkt op 2800 ft
lichte sneeuw

METAR: CYER 051045Z AUTO 27008KT 9SM -SN BKN015 OVC028 M05/M06 A2997 RMK SLP151

Tijdstip: 07:06 (11:06 UTC)

Verwachting

Dit bericht is 2 uur en het 18 minuten geleden gemaakt, om 08:48 UTC
Verwachting geldig van 05 om 09 UTC tot 05 om 19 UTC
Wind 5 kt uit het westzuidwesten
Zicht: 10 km
Gebroken wolken op 2500 ft
Tijdelijke
van 05 om 09 UTC tot 05 om 19 UTC
Zicht: 8.0 km
Gebroken wolken op 1500 ft
lichte sneeuw
Wijzigt naar
van 05 om 12 UTC tot 05 om 14 UTC
Wind 10 kt uit het westen met uitschieters tot 22 kt

TAF: CYER 050848Z 0509/0519 24005KT P6SM BKN025 TEMPO 0509/0519 5SM -SN BKN015 BECMG 0512/0514 28010G22KT RMK FCST BASED ON AUTO OBS. NXT FCST BY 051500Z

Waarnemingen en weersverwachtingen van meer dan 4000 vliegvelden (METAR en TAF).

De beschikbare stations zijn de gele en rode punten op de kaart.

Ga met uw muis naar het station om de naam te zien.

Klik dan om waarnemingen en weersverwachtingen te zien.

kaart wijzigen: klik op de groene knoppen met een zwart kruis om in te zoomen, op de groene knop met een streepje om uit te zoomen of op de groene pijlen voor aangrenzende kaarten.


METAR-TAF: